Time;durP1;ratioP1;P1;durP2;ratioP2;P2;SDS_P1;SDS_P2;PMS_P1;PMS_P2;Temp;Humidity;BMP_temperature;BMP_pressure;BME280_temperature;BME280_humidity;BME280_pressure;Samples;Min_cycle;Max_cycle;Signal;HPM_P1;HPM_P2
2022/01/27 00:05:32;;;;;;;9.33;6.53;;;;;;;-1.72;59.00;100557.74;1742689;81;21043;-59
2022/01/27 00:07:15;;;;;;;12.67;6.73;;;;;;;-1.68;59.42;100559.20;1666211;84;22216;-60
2022/01/27 00:09:54;;;;;;;12.03;7.25;;;;;;;-1.70;59.29;100556.69;1703924;82;21009;-59
2022/01/27 00:12:18;;;;;;;10.77;6.77;;;;;;;-1.67;59.43;100555.66;1722392;80;21599;-58
2022/01/27 00:14:46;;;;;;;9.80;7.73;;;;;;;-1.69;59.39;100552.32;1753386;80;21049;-59
2022/01/27 00:17:14;;;;;;;10.47;7.50;;;;;;;-1.68;59.67;100551.36;1753843;80;21032;-60
2022/01/27 00:19:41;;;;;;;10.80;7.37;;;;;;;-1.67;59.88;100551.27;1746987;80;21007;-60
2022/01/27 00:22:09;;;;;;;15.97;8.20;;;;;;;-1.67;59.73;100557.80;1734524;80;21030;-58
2022/01/27 00:24:35;;;;;;;12.07;7.83;;;;;;;-1.65;59.62;100553.78;1755066;80;21059;-58
2022/01/27 00:27:02;;;;;;;10.72;8.43;;;;;;;-1.65;59.54;100553.78;1714290;82;20983;-59
2022/01/27 00:29:28;;;;;;;13.43;6.83;;;;;;;-1.65;59.62;100561.14;1722131;82;21115;-58
2022/01/27 00:31:54;;;;;;;12.40;7.33;;;;;;;-1.68;59.76;100557.89;1678084;83;21145;-58
2022/01/27 00:34:20;;;;;;;8.50;6.65;;;;;;;-1.73;59.87;100552.99;1722396;82;21114;-59
2022/01/27 00:36:46;;;;;;;8.75;7.30;;;;;;;-1.77;59.99;100552.84;1722992;82;21315;-59
2022/01/27 00:39:12;;;;;;;14.65;7.03;;;;;;;-1.86;60.10;100537.78;1688160;85;21089;-59
2022/01/27 00:41:39;;;;;;;13.05;8.93;;;;;;;-1.82;60.28;100547.91;1702570;83;21025;-58
2022/01/27 00:44:05;;;;;;;14.43;9.65;;;;;;;-1.82;60.32;100547.91;1723626;82;21017;-60
2022/01/27 00:46:32;;;;;;;23.17;10.63;;;;;;;-1.86;60.35;100543.84;1695895;83;21455;-59
2022/01/27 00:48:58;;;;;;;17.67;11.75;;;;;;;-1.87;60.40;100543.45;1696696;83;21046;-58
2022/01/27 00:51:29;;;;;;;21.02;10.95;;;;;;;-1.92;60.49;100535.11;1697381;83;21607;-59
2022/01/27 00:54:03;;;;;;;19.90;11.57;;;;;;;-1.96;60.32;100541.45;1702599;83;21028;-58
2022/01/27 00:56:31;;;;;;;16.43;11.17;;;;;;;-2.00;60.31;100544.77;1736710;80;21009;-59
2022/01/27 01:01:23;;;;;;;19.35;10.15;;;;;;;-2.05;60.70;100541.62;1732780;81;20988;-59
2022/01/27 01:03:50;;;;;;;18.30;10.60;;;;;;;-2.07;60.99;100539.58;1731333;81;21005;-58
2022/01/27 01:06:35;;;;;;;19.43;11.57;;;;;;;-2.06;61.14;100540.41;1747985;80;21045;-59
2022/01/27 01:19:47;;;;;;;20.77;13.03;;;;;;;-2.11;61.51;100543.34;1720407;81;21036;-59
2022/01/27 01:32:54;;;;;;;32.93;18.17;;;;;;;-2.10;61.80;100538.95;1717858;82;20998;-57
2022/01/27 01:35:28;;;;;;;28.87;18.53;;;;;;;-2.09;61.80;100536.23;1718302;82;21061;-58
2022/01/27 01:37:50;;;;;;;38.70;19.37;;;;;;;-2.05;61.76;100538.18;1731338;81;21016;-59
2022/01/27 01:40:17;;;;;;;36.77;18.20;;;;;;;-2.04;61.85;100533.30;1732058;81;21042;-58
2022/01/27 01:42:44;;;;;;;26.33;17.90;;;;;;;-2.01;61.76;100528.71;1750031;80;21117;-58
2022/01/27 01:45:14;;;;;;;39.13;19.47;;;;;;;-2.01;61.80;100523.48;1736149;81;20949;-58
2022/01/27 01:47:40;;;;;;;28.43;18.33;;;;;;;-1.98;61.79;100527.21;1732597;81;20961;-57
2022/01/27 01:50:09;;;;;;;30.65;18.50;;;;;;;-1.98;62.00;100518.07;1740157;81;21093;-58
2022/01/27 01:52:37;;;;;;;32.77;19.10;;;;;;;-1.95;61.82;100509.18;1741251;81;21028;-58
2022/01/27 01:55:06;;;;;;;41.23;22.03;;;;;;;-1.97;61.84;100514.50;1741516;80;21131;-59
2022/01/27 01:57:35;;;;;;;36.37;19.73;;;;;;;-1.95;61.85;100511.80;1741381;81;21017;-57
2022/01/27 02:00:06;;;;;;;30.87;19.60;;;;;;;-1.96;62.02;100517.50;1744027;81;20965;-57
2022/01/27 02:02:34;;;;;;;32.13;20.37;;;;;;;-1.93;62.11;100524.76;1704029;82;21033;-58
2022/01/27 02:05:00;;;;;;;36.85;20.15;;;;;;;-1.93;62.14;100529.50;1703737;82;20977;-57
2022/01/27 02:18:15;;;;;;;36.43;18.60;;;;;;;-1.92;62.24;100499.84;1716791;82;21060;-57
2022/01/27 02:20:41;;;;;;;37.35;21.68;;;;;;;-1.92;62.01;100506.38;1727966;81;21536;-58
2022/01/27 02:23:10;;;;;;;31.50;18.40;;;;;;;-1.95;62.02;100505.27;1754589;80;20946;-58
2022/01/27 02:25:37;;;;;;;35.63;17.47;;;;;;;-1.99;62.29;100499.88;1741893;80;20993;-58
2022/01/27 02:28:05;;;;;;;30.23;17.50;;;;;;;-2.02;61.97;100505.30;1751829;80;21077;-57
2022/01/27 02:30:32;;;;;;;28.77;16.50;;;;;;;-2.09;61.77;100496.20;1757162;80;21506;-57
2022/01/27 02:32:59;;;;;;;31.60;18.65;;;;;;;-2.12;61.80;100490.72;1738739;81;21485;-58
2022/01/27 02:35:29;;;;;;;29.20;16.90;;;;;;;-2.13;61.76;100501.27;1737817;80;21061;-58
2022/01/27 02:37:55;;;;;;;35.07;17.57;;;;;;;-2.14;62.02;100492.60;1754301;80;20947;-58
2022/01/27 02:40:36;;;;;;;31.37;18.23;;;;;;;-2.12;62.39;100493.81;1754379;80;21086;-58
2022/01/27 02:43:06;;;;;;;33.27;18.57;;;;;;;-2.06;62.51;100496.00;1734665;81;21496;-59
2022/01/27 02:45:47;;;;;;;30.47;17.13;;;;;;;-2.02;62.60;100490.94;1738953;81;21091;-58
2022/01/27 02:48:13;;;;;;;26.70;17.33;;;;;;;-1.98;62.21;100485.86;1761184;80;20978;-57
2022/01/27 02:50:39;;;;;;;29.23;19.12;;;;;;;-1.98;62.06;100485.86;1747107;81;21154;-58
2022/01/27 02:53:07;;;;;;;24.63;15.32;;;;;;;-1.94;61.88;100496.50;1740291;81;21727;-58
2022/01/27 02:55:33;;;;;;;26.13;16.23;;;;;;;-1.92;61.76;100494.61;1732819;81;21064;-61
2022/01/27 02:57:59;;;;;;;29.20;16.25;;;;;;;-1.90;61.61;100495.34;1734662;81;21295;-60
2022/01/27 03:00:26;;;;;;;25.15;16.48;;;;;;;-2.05;61.41;100479.41;1741751;81;21028;-60
2022/01/27 03:02:52;;;;;;;;;;;;;;;-1.89;61.33;100507.92;1740890;81;20993;-60
2022/01/27 03:05:18;;;;;;;33.20;18.63;;;;;;;-1.91;61.40;100510.64;1759644;80;20117;-60
2022/01/27 03:07:48;;;;;;;28.27;17.20;;;;;;;-1.93;61.76;100503.86;1737946;81;21072;-61
2022/01/27 03:10:19;;;;;;;26.50;17.53;;;;;;;-1.89;61.54;100504.84;1720317;82;21042;-59
2022/01/27 03:12:49;;;;;;;27.37;17.83;;;;;;;-1.86;61.34;100502.51;1739582;81;21041;-60
2022/01/27 03:15:17;;;;;;;30.47;17.57;;;;;;;-1.83;61.36;100491.83;1722246;81;21096;-60
2022/01/27 03:17:43;;;;;;;26.00;14.45;;;;;;;-1.81;61.03;100482.96;1729084;81;21574;-60
2022/01/27 03:20:11;;;;;;;25.30;17.27;;;;;;;-1.80;60.85;100481.17;1739177;81;21036;-59
2022/01/27 03:22:37;;;;;;;23.43;15.80;;;;;;;-1.77;60.90;100480.50;1741094;81;20993;-59
2022/01/27 03:25:05;;;;;;;27.75;18.23;;;;;;;-1.71;60.78;100480.99;1736109;81;21004;-59
2022/01/27 03:27:32;;;;;;;27.67;15.60;;;;;;;-1.68;60.63;100467.24;1734392;81;21009;-60
2022/01/27 03:29:58;;;;;;;27.40;16.00;;;;;;;-1.62;60.74;100476.44;1755908;80;21088;-59
2022/01/27 03:32:27;;;;;;;23.35;14.68;;;;;;;-1.63;60.94;100463.02;1739389;81;21517;-60
2022/01/27 03:34:54;;;;;;;22.77;12.50;;;;;;;-1.62;60.95;100469.45;1738062;80;21509;-62
2022/01/27 03:37:21;;;;;;;25.70;13.97;;;;;;;-1.66;60.65;100467.14;1717698;82;21518;-60
2022/01/27 03:39:47;;;;;;;20.60;13.98;;;;;;;-1.66;60.75;100467.97;1733259;81;21026;-57
2022/01/27 03:42:13;;;;;;;19.82;12.43;;;;;;;-1.68;60.32;100455.48;1734251;81;21115;-60
2022/01/27 03:44:40;;;;;;;16.17;9.88;;;;;;;-1.71;60.06;100453.55;1759509;80;21084;-60
2022/01/27 03:47:07;;;;;;;14.53;9.15;;;;;;;-1.76;59.52;100453.41;1759988;80;21024;-61
2022/01/27 03:49:33;;;;;;;;;;;;;;;-1.81;59.25;100446.38;1756837;80;21091;-60
2022/01/27 03:52:01;;;;;;;15.43;9.77;;;;;;;-1.83;59.39;100440.87;1731909;81;20133;-60
2022/01/27 03:54:31;;;;;;;14.93;9.30;;;;;;;-1.94;59.21;100443.39;1735596;81;21077;-59
2022/01/27 03:56:59;;;;;;;12.13;8.30;;;;;;;-2.02;59.19;100438.69;1759288;80;21532;-58
2022/01/27 03:59:28;;;;;;;13.27;8.40;;;;;;;-2.08;59.23;100437.33;1729754;81;21570;-60
2022/01/27 04:01:56;;;;;;;18.03;9.03;;;;;;;-2.14;59.15;100435.14;1731989;81;21536;-59
2022/01/27 04:04:24;;;;;;;13.87;8.40;;;;;;;-2.28;59.29;100423.03;1760105;80;21537;-59
2022/01/27 04:06:52;;;;;;;14.17;9.00;;;;;;;-2.26;59.43;100432.05;1759354;80;21504;-59
2022/01/27 04:09:18;;;;;;;16.60;10.20;;;;;;;-2.32;59.59;100438.52;1738370;81;21051;-59
2022/01/27 04:11:46;;;;;;;20.60;11.73;;;;;;;-2.35;59.75;100433.52;1757149;80;21009;-59
2022/01/27 04:14:12;;;;;;;21.20;11.77;;;;;;;-2.39;60.23;100442.50;1750798;80;21510;-60
2022/01/27 04:16:38;;;;;;;21.62;12.33;;;;;;;-2.44;60.42;100434.13;1742634;80;21007;-60
2022/01/27 04:19:05;;;;;;;25.88;15.13;;;;;;;-2.47;60.84;100433.02;1736463;81;21053;-60
2022/01/27 04:21:31;;;;;;;24.67;14.28;;;;;;;-2.52;60.93;100435.95;1716188;81;21084;-60
2022/01/27 04:23:57;;;;;;;21.55;13.88;;;;;;;-2.57;61.35;100435.41;1735444;81;21008;-60
2022/01/27 04:26:35;;;;;;;22.85;13.65;;;;;;;-2.59;61.25;100439.90;1737467;81;21052;-59
2022/01/27 04:28:55;;;;;;;22.60;14.00;;;;;;;-2.65;61.10;100431.17;1717462;82;21033;-59
2022/01/27 04:31:23;;;;;;;18.62;11.88;;;;;;;-2.70;61.27;100434.55;1737311;81;21074;-59
2022/01/27 04:33:49;;;;;;;18.47;10.90;;;;;;;-2.75;61.21;100429.16;1739813;80;21047;-59
2022/01/27 04:36:31;;;;;;;26.23;13.53;;;;;;;-2.80;61.24;100419.97;1758837;80;21104;-59
2022/01/27 04:39:09;;;;;;;25.10;14.58;;;;;;;-2.83;61.10;100414.94;1752569;80;21056;-60
2022/01/27 04:41:39;;;;;;;22.27;14.60;;;;;;;-2.85;61.23;100422.86;1731284;81;21033;-59
2022/01/27 04:44:12;;;;;;;21.30;13.07;;;;;;;-2.87;61.28;100422.12;1755451;80;21160;-60
2022/01/27 04:48:59;;;;;;;24.43;14.70;;;;;;;-3.00;61.34;100411.65;1744637;81;21520;-62
2022/01/27 04:51:23;;;;;;;30.70;16.10;;;;;;;-3.06;61.75;100408.62;1704979;82;21008;-60
2022/01/27 04:56:20;;;;;;;24.53;13.97;;;;;;;-3.20;62.12;100402.52;1712421;82;21088;-61
2022/01/27 04:58:51;;;;;;;25.93;16.37;;;;;;;-3.25;62.33;100399.84;1708319;82;21350;-62
2022/01/27 05:01:18;;;;;;;24.27;16.03;;;;;;;-3.26;62.41;100408.58;1694510;84;21033;-61
2022/01/27 05:03:53;;;;;;;34.27;18.00;;;;;;;-3.29;62.57;100404.89;1705227;82;21006;-61
2022/01/27 05:06:15;;;;;;;22.93;13.63;;;;;;;-3.35;62.68;100410.02;1697874;83;21045;-61
2022/01/27 05:08:42;;;;;;;25.45;16.27;;;;;;;-3.38;62.82;100411.03;1693720;82;20992;-60
2022/01/27 05:11:26;;;;;;;21.47;13.00;;;;;;;-3.41;63.04;100409.09;1694004;82;21125;-59
2022/01/27 05:13:57;;;;;;;21.57;12.67;;;;;;;-3.47;63.10;100412.08;1705011;82;21160;-60
2022/01/27 05:16:21;;;;;;;21.77;13.70;;;;;;;-3.49;63.20;100416.56;1707038;83;21097;-60
2022/01/27 05:18:47;;;;;;;20.60;12.88;;;;;;;-3.53;63.38;100412.00;1694899;82;21018;-60
2022/01/27 05:21:14;;;;;;;23.57;15.08;;;;;;;-3.55;63.48;100408.19;1707568;82;21021;-61
2022/01/27 05:23:40;;;;;;;21.70;14.28;;;;;;;-3.60;63.31;100406.36;1707667;83;21029;-60
2022/01/27 05:26:06;;;;;;;24.87;15.40;;;;;;;-3.62;63.58;100409.49;1711454;82;21022;-61
2022/01/27 05:28:32;;;;;;;25.12;15.48;;;;;;;-3.67;63.77;100405.50;1717998;82;21017;-60
2022/01/27 05:30:58;;;;;;;30.12;15.98;;;;;;;-3.70;63.91;100410.45;1722641;82;21527;-60
2022/01/27 05:33:24;;;;;;;21.20;15.38;;;;;;;-3.73;64.15;100409.32;1724651;81;21005;-62
2022/01/27 05:35:50;;;;;;;25.45;14.68;;;;;;;-3.70;64.17;100411.75;1730427;81;21009;-61
2022/01/27 05:38:17;;;;;;;19.87;13.65;;;;;;;-3.65;64.16;100403.19;1738868;81;21026;-61
2022/01/27 05:40:44;;;;;;;19.45;12.60;;;;;;;-3.74;64.04;100394.17;1745186;81;20994;-60
2022/01/27 05:43:12;;;;;;;21.17;13.77;;;;;;;-3.68;64.15;100404.67;1732793;81;20980;-61
2022/01/27 05:45:38;;;;;;;20.57;13.53;;;;;;;-3.67;64.16;100401.59;1723700;81;21001;-60
2022/01/27 05:48:05;;;;;;;16.40;10.23;;;;;;;-3.63;64.33;100406.53;1714515;82;21065;-59
2022/01/27 05:50:32;;;;;;;20.17;14.18;;;;;;;-3.60;64.27;100407.66;1711906;82;21044;-63
2022/01/27 05:52:59;;;;;;;20.63;13.87;;;;;;;-3.61;64.19;100405.97;1709402;82;21005;-60
2022/01/27 05:55:26;;;;;;;25.23;15.80;;;;;;;-3.64;64.23;100412.66;1713718;81;21036;-61
2022/01/27 05:57:52;;;;;;;23.05;14.15;;;;;;;-3.70;64.68;100407.84;1735193;81;21066;-60
2022/01/27 06:00:19;;;;;;;18.67;14.38;;;;;;;-3.72;64.84;100404.02;1735359;81;21765;-59
2022/01/27 06:02:45;;;;;;;27.23;15.30;;;;;;;-3.74;64.94;100405.89;1706464;82;21053;-63
2022/01/27 06:05:12;;;;;;;21.82;15.03;;;;;;;-3.74;65.29;100408.49;1698474;82;21064;-60
2022/01/27 06:07:40;;;;;;;24.13;14.17;;;;;;;-3.73;65.50;100402.37;1699561;83;21053;-62
2022/01/27 06:10:07;;;;;;;25.02;13.03;;;;;;;-3.72;65.73;100405.33;1719282;81;21061;-59
2022/01/27 06:12:34;;;;;;;21.83;13.33;;;;;;;-3.70;65.74;100401.80;1719455;81;21018;-61
2022/01/27 06:15:01;;;;;;;20.50;14.47;;;;;;;-3.64;65.78;100402.24;1696619;82;21087;-60
2022/01/27 06:17:29;;;;;;;20.95;13.05;;;;;;;-3.58;65.65;100407.53;1717442;81;21050;-61
2022/01/27 06:19:57;;;;;;;20.70;13.40;;;;;;;-3.49;65.69;100393.94;1704231;82;21001;-61
2022/01/27 06:22:24;;;;;;;19.87;12.57;;;;;;;-3.45;65.17;100394.10;1711956;81;21171;-62
2022/01/27 06:27:57;;;;;;;17.73;12.40;;;;;;;-3.45;65.31;100384.98;1808724;77;23044;-60
2022/01/27 06:30:24;;;;;;;19.63;12.23;;;;;;;-3.41;65.20;100388.23;1774164;80;21530;-60
2022/01/27 06:32:50;;;;;;;21.07;13.53;;;;;;;-3.39;65.24;100385.92;1770340;80;21462;-60
2022/01/27 06:35:16;;;;;;;15.50;10.60;;;;;;;-3.38;65.08;100380.23;1698839;82;21115;-60
2022/01/27 06:37:45;;;;;;;19.40;11.35;;;;;;;-3.36;65.01;100379.66;1714913;82;21047;-59
2022/01/27 06:40:14;;;;;;;15.67;10.27;;;;;;;-3.35;65.15;100374.36;1706759;82;21022;-60
2022/01/27 06:42:42;;;;;;;16.20;10.77;;;;;;;-3.29;65.13;100367.09;1708197;82;21025;-61
2022/01/27 06:45:10;;;;;;;15.40;11.33;;;;;;;-3.22;65.00;100374.86;1685526;82;21066;-62
2022/01/27 06:47:37;;;;;;;17.90;12.17;;;;;;;-3.21;64.65;100376.55;1684717;84;21017;-61
2022/01/27 06:50:05;;;;;;;16.67;10.58;;;;;;;-3.22;64.90;100365.73;1678467;84;20990;-61
2022/01/27 06:52:31;;;;;;;20.80;11.00;;;;;;;-3.17;65.01;100363.20;1679475;84;21045;-60
2022/01/27 06:54:57;;;;;;;20.55;12.25;;;;;;;-3.11;64.81;100371.56;1685974;85;21026;-61
2022/01/27 06:57:25;;;;;;;17.25;12.15;;;;;;;-3.16;64.56;100359.66;1699594;82;21105;-59
2022/01/27 06:59:52;;;;;;;14.50;11.43;;;;;;;-3.14;64.48;100358.27;1702052;82;21050;-63
2022/01/27 07:02:18;;;;;;;16.73;11.40;;;;;;;-3.18;64.52;100367.23;1711799;82;21002;-61
2022/01/27 07:04:44;;;;;;;18.60;12.82;;;;;;;-3.14;64.89;100367.39;1711317;82;21082;-62
2022/01/27 07:07:12;;;;;;;18.23;12.60;;;;;;;-3.11;64.82;100362.44;1698749;82;21050;-63
2022/01/27 07:09:40;;;;;;;20.60;13.43;;;;;;;-3.16;64.78;100353.62;1710994;82;21093;-63
2022/01/27 07:12:08;;;;;;;19.80;13.13;;;;;;;-3.20;64.96;100355.59;1671509;82;21070;-63
2022/01/27 07:14:35;;;;;;;20.70;12.33;;;;;;;-3.23;65.13;100349.73;1673046;84;20989;-62
2022/01/27 07:17:04;;;;;;;23.45;12.88;;;;;;;-3.29;65.44;100346.23;1634416;86;21036;-66
2022/01/27 07:19:32;;;;;;;20.00;13.27;;;;;;;-3.29;65.69;100349.67;1616060;87;21158;-62
2022/01/27 07:21:59;;;;;;;22.70;12.47;;;;;;;-3.30;65.50;100348.45;1633358;86;20981;-63
2022/01/27 07:24:25;;;;;;;25.97;14.37;;;;;;;-3.28;65.43;100357.02;1664468;84;21053;-63
2022/01/27 07:26:51;;;;;;;;;;;;;;;-3.27;65.55;100356.09;1669888;84;21156;-63
2022/01/27 07:29:20;;;;;;;20.27;13.20;;;;;;;-3.23;65.68;100351.87;1661050;84;20185;-63
2022/01/27 07:31:46;;;;;;;19.17;12.93;;;;;;;-3.20;65.47;100345.61;1659187;85;22050;-64
2022/01/27 07:34:12;;;;;;;20.88;11.75;;;;;;;-3.14;65.34;100350.45;1660607;84;20979;-65
2022/01/27 07:36:40;;;;;;;21.97;14.95;;;;;;;-3.08;65.28;100337.00;1649293;85;21076;-64
2022/01/27 07:39:13;;;;;;;18.37;12.47;;;;;;;-3.02;65.15;100341.80;1653291;85;22138;-64
2022/01/27 07:41:35;;;;;;;22.37;13.73;;;;;;;-3.02;65.14;100333.98;1618884;87;21011;-63
2022/01/27 07:44:00;;;;;;;19.92;12.75;;;;;;;-3.01;65.13;100330.45;1618523;87;21025;-64
2022/01/27 07:46:26;;;;;;;19.82;13.80;;;;;;;-3.05;65.31;100324.22;1644902;86;21059;-62
2022/01/27 07:48:52;;;;;;;25.48;13.90;;;;;;;-3.09;65.36;100331.41;1697397;83;21125;-65
2022/01/27 07:51:18;;;;;;;21.60;13.83;;;;;;;-3.12;65.55;100335.53;1696132;83;21109;-65
2022/01/27 07:53:45;;;;;;;21.00;12.82;;;;;;;-3.18;65.84;100332.03;1696501;83;21023;-66
2022/01/27 07:56:11;;;;;;;21.65;14.25;;;;;;;-3.20;66.11;100323.00;1672592;83;21025;-63
2022/01/27 07:58:40;;;;;;;21.48;13.93;;;;;;;-3.17;66.24;100323.27;1650934;85;21068;-64
2022/01/27 08:01:08;;;;;;;24.27;14.80;;;;;;;-3.17;66.26;100323.27;1661538;84;20990;-65
2022/01/27 08:03:37;;;;;;;24.40;15.63;;;;;;;-3.18;66.43;100324.21;1674961;84;21085;-66
2022/01/27 08:06:07;;;;;;;26.53;16.70;;;;;;;-3.22;66.42;100324.02;1677607;84;21077;-64
2022/01/27 08:08:35;;;;;;;24.10;15.23;;;;;;;-3.21;66.53;100313.97;1674137;84;20997;-64
2022/01/27 08:11:03;;;;;;;33.50;18.98;;;;;;;-3.18;67.00;100313.31;1679473;84;21517;-66
2022/01/27 08:13:29;;;;;;;29.27;18.30;;;;;;;-3.19;67.26;100315.53;1675104;84;21111;-66
2022/01/27 08:15:55;;;;;;;30.92;17.05;;;;;;;-3.12;67.34;100318.59;1676687;84;20978;-66
2022/01/27 08:18:21;;;;;;;26.85;17.73;;;;;;;-3.04;67.47;100315.47;1680289;84;21299;-65
2022/01/27 08:20:50;;;;;;;28.40;18.40;;;;;;;-2.94;67.35;100308.25;1691788;84;21098;-64
2022/01/27 08:23:16;;;;;;;;;;;;;;;-2.91;67.31;100306.37;1680745;83;21540;-64
2022/01/27 08:25:48;;;;;;;29.00;18.87;;;;;;;-2.98;67.45;100306.75;1686375;83;20186;-65
2022/01/27 08:28:28;;;;;;;31.50;18.27;;;;;;;-3.05;67.98;100312.03;1693317;83;22223;-66
2022/01/27 08:30:51;;;;;;;27.82;18.52;;;;;;;-3.03;68.54;100315.82;1692709;83;21077;-65
2022/01/27 08:33:19;;;;;;;27.53;18.53;;;;;;;-2.97;68.46;100307.13;1688398;83;21568;-65
2022/01/27 08:35:46;;;;;;;26.17;18.57;;;;;;;-2.88;68.61;100306.14;1685276;83;21521;-64
2022/01/27 08:38:13;;;;;;;24.90;20.05;;;;;;;-2.78;68.60;100311.95;1694890;83;20938;-65
2022/01/27 08:40:39;;;;;;;28.97;19.57;;;;;;;-2.69;68.36;100303.12;1702065;83;21037;-65
2022/01/27 08:43:08;;;;;;;28.62;20.32;;;;;;;-2.64;68.33;100299.27;1697680;83;21489;-67
2022/01/27 08:45:38;;;;;;;27.60;20.30;;;;;;;-2.62;68.67;100296.11;1699476;83;21077;-64
2022/01/27 08:48:10;;;;;;;29.77;19.23;;;;;;;-2.57;68.77;100290.09;1669938;83;21021;-65
2022/01/27 08:50:36;;;;;;;30.40;19.17;;;;;;;-2.47;68.90;100279.84;1692779;83;21656;-66
2022/01/27 08:53:03;;;;;;;27.07;19.20;;;;;;;-2.44;68.68;100282.25;1696399;83;21005;-64
2022/01/27 08:55:29;;;;;;;28.90;20.45;;;;;;;-2.41;68.65;100283.36;1708516;83;21081;-66
2022/01/27 08:57:55;;;;;;;27.48;19.32;;;;;;;-2.33;68.76;100290.66;1709088;84;21492;-66
2022/01/27 09:00:21;;;;;;;30.97;21.85;;;;;;;-2.28;68.56;100282.04;1701047;83;21547;-65
2022/01/27 09:02:48;;;;;;;;;;;;;;;-2.21;68.64;100278.03;1677796;84;21586;-67
2022/01/27 09:05:14;;;;;;;30.40;20.67;;;;;;;-2.12;68.50;100274.43;1678672;85;20133;-69
2022/01/27 09:07:41;;;;;;;38.00;21.90;;;;;;;-2.16;68.73;100268.11;1687344;84;21031;-66
2022/01/27 09:10:09;;;;;;;25.45;18.55;;;;;;;-2.18;69.05;100265.25;1687229;84;21147;-64
2022/01/27 09:12:36;;;;;;;29.67;19.40;;;;;;;-2.23;69.24;100269.47;1678576;82;20999;-65
2022/01/27 09:15:05;;;;;;;30.10;19.93;;;;;;;-2.22;69.48;100264.63;1672315;84;21103;-65
2022/01/27 09:17:39;;;;;;;29.40;19.70;;;;;;;-2.22;69.76;100248.96;1666985;84;21134;-65
2022/01/27 09:20:01;;;;;;;34.27;19.83;;;;;;;-2.16;70.14;100249.00;1669427;84;21034;-66
2022/01/27 09:22:28;;;;;;;24.60;18.10;;;;;;;-2.22;70.40;100237.21;1674972;83;20988;-67
2022/01/27 09:25:06;;;;;;;27.45;19.20;;;;;;;-2.14;70.59;100244.98;1701241;83;21104;-66
2022/01/27 09:27:27;;;;;;;25.60;18.27;;;;;;;-2.15;71.46;100238.90;1704173;83;21588;-66
2022/01/27 09:29:54;;;;;;;29.70;18.00;;;;;;;-2.05;72.15;100235.19;1702531;83;21509;-65
2022/01/27 09:32:20;;;;;;;26.70;17.77;;;;;;;-1.96;71.69;100234.50;1703893;83;21043;-65
2022/01/27 09:34:47;;;;;;;26.17;17.63;;;;;;;-1.89;71.64;100247.48;1705935;82;21191;-65
2022/01/27 09:37:14;;;;;;;27.83;19.40;;;;;;;-1.80;71.78;100241.60;1709426;83;21135;-65
2022/01/27 09:39:42;;;;;;;;;;;;;;;-1.72;72.10;100244.14;1709672;83;21105;-65
2022/01/27 09:42:09;;;;;;;25.52;16.75;;;;;;;-1.63;71.99;100229.92;1711404;82;20134;-66
2022/01/27 09:44:37;;;;;;;28.37;18.43;;;;;;;-1.64;72.37;100233.95;1688740;83;21497;-65
2022/01/27 09:47:11;;;;;;;33.70;18.57;;;;;;;-1.67;72.78;100234.19;1668919;84;21055;-65
2022/01/27 09:49:50;;;;;;;27.47;17.87;;;;;;;-1.67;73.22;100225.87;1674981;84;21060;-67
2022/01/27 09:52:10;;;;;;;23.17;16.83;;;;;;;-1.62;73.29;100227.68;1670133;84;21007;-65
2022/01/27 09:54:37;;;;;;;28.85;17.55;;;;;;;-1.58;73.56;100221.75;1685523;84;21044;-66
2022/01/27 09:57:05;;;;;;;26.82;16.95;;;;;;;-1.51;73.61;100220.33;1681556;83;21014;-66
2022/01/27 09:59:32;;;;;;;24.57;15.43;;;;;;;-1.53;73.99;100217.00;1667081;84;21441;-65
2022/01/27 10:02:04;;;;;;;;;;;;;;;-1.91;74.10;100153.20;1686985;83;21055;-65
2022/01/27 10:04:48;;;;;;;22.30;15.10;;;;;;;-1.51;74.34;100219.02;1685480;83;20469;-65
2022/01/27 10:07:26;;;;;;;25.97;15.40;;;;;;;-1.48;74.55;100216.20;1674789;83;21059;-66
2022/01/27 10:10:11;;;;;;;23.77;15.47;;;;;;;-1.39;74.57;100211.59;1685162;83;20954;-64
2022/01/27 10:12:46;;;;;;;21.60;15.60;;;;;;;-1.32;74.46;100209.81;1693798;83;21070;-64
2022/01/27 10:15:18;;;;;;;23.37;16.73;;;;;;;-1.28;74.47;100205.56;1681284;83;21595;-64
2022/01/27 10:18:07;;;;;;;22.37;15.20;;;;;;;-1.22;74.41;100201.66;1694537;83;21061;-65
2022/01/27 10:20:40;;;;;;;23.63;15.63;;;;;;;-1.12;74.47;100197.38;1690577;83;21061;-65
2022/01/27 10:23:19;;;;;;;26.10;16.40;;;;;;;-1.05;74.32;100190.73;1679939;83;21526;-66
2022/01/27 10:25:55;;;;;;;24.43;17.00;;;;;;;-1.03;74.42;100182.30;1701196;84;21075;-65
2022/01/27 10:31:21;;;;;;;25.40;17.73;;;;;;;-1.06;74.71;100190.36;1672024;85;21133;-65
2022/01/27 10:33:59;;;;;;;23.13;17.50;;;;;;;-1.02;74.94;100195.75;1673850;84;21092;-65
2022/01/27 10:36:36;;;;;;;30.77;17.97;;;;;;;-1.04;75.22;100185.84;1698391;83;20978;-65
2022/01/27 10:39:10;;;;;;;23.33;17.63;;;;;;;-1.07;75.74;100179.56;1694214;83;21106;-64
2022/01/27 10:41:59;;;;;;;25.37;17.93;;;;;;;-1.07;75.74;100179.56;1688236;82;21555;-63
2022/01/27 10:44:37;;;;;;;23.87;17.27;;;;;;;-1.06;76.10;100175.16;1698353;82;21453;-64
2022/01/27 10:47:17;;;;;;;27.80;18.00;;;;;;;-1.05;76.05;100171.12;1724951;82;21024;-66
2022/01/27 10:49:48;;;;;;;23.80;16.77;;;;;;;-1.09;76.27;100166.22;1733382;82;21062;-65
2022/01/27 10:55:13;;;;;;;24.73;17.17;;;;;;;-1.06;76.40;100164.20;1725957;82;21585;-64
2022/01/27 10:57:47;;;;;;;23.93;17.37;;;;;;;-1.05;76.52;100164.58;1718258;82;21077;-64
2022/01/27 11:00:19;;;;;;;26.43;18.97;;;;;;;-1.00;76.53;100157.22;1739047;81;21011;-65
2022/01/27 11:03:04;;;;;;;24.00;17.77;;;;;;;-0.94;76.33;100165.52;1646981;85;21617;-65
2022/01/27 11:05:38;;;;;;;26.10;18.10;;;;;;;-0.96;76.25;100163.05;1649534;85;21031;-65
2022/01/27 11:08:04;;;;;;;22.77;17.50;;;;;;;-0.92;76.37;100160.55;1613727;87;21069;-65
2022/01/27 11:10:32;;;;;;;28.87;18.27;;;;;;;-0.92;76.29;100157.93;1617305;87;21012;-65
2022/01/27 11:12:59;;;;;;;;;;;;;;;-0.91;76.27;100160.06;1698439;82;21030;-65
2022/01/27 11:15:26;;;;;;;24.50;18.20;;;;;;;-0.89;76.49;100163.39;1712261;83;20142;-64
2022/01/27 11:17:54;;;;;;;;;;;;;;;-1.02;76.77;100153.03;1713733;83;21538;-65
2022/01/27 11:20:48;;;;;;;;;;;;;;;-1.00;76.70;100155.91;1710236;83;20128;-65
2022/01/27 11:25:52;;;;;;;24.33;16.93;;;;;;;-1.02;77.47;100139.95;1709141;83;21458;-63
2022/01/27 11:28:21;;;;;;;25.90;19.17;;;;;;;-1.00;77.65;100139.36;1709385;83;21176;-65
2022/01/27 11:31:10;;;;;;;29.17;17.57;;;;;;;-1.01;77.71;100132.47;1708358;83;21516;-66
2022/01/27 11:33:40;;;;;;;27.57;19.20;;;;;;;-0.96;77.81;100139.50;1701099;82;21129;-66
2022/01/27 11:36:16;;;;;;;28.03;18.83;;;;;;;-0.90;77.58;100137.70;1678015;84;21002;-66
2022/01/27 11:38:45;;;;;;;;;;;;;;;-0.85;77.53;100140.80;1693653;83;21028;-67
2022/01/27 11:41:43;;;;;;;22.13;15.03;;;;;;;-0.76;77.28;100139.23;1671486;84;20143;-67
2022/01/27 11:44:36;;;;;;;29.32;20.17;;;;;;;-0.76;77.38;100131.87;1692872;83;21046;-68
2022/01/27 11:47:17;;;;;;;30.90;21.87;;;;;;;-0.69;77.14;100131.27;1699063;83;21064;-67
2022/01/27 11:50:02;;;;;;;27.27;19.73;;;;;;;-0.69;77.08;100116.87;1689724;83;21038;-66
2022/01/27 11:52:34;;;;;;;28.20;19.00;;;;;;;-0.70;77.24;100115.67;1678171;83;21039;-67
2022/01/27 11:55:28;;;;;;;31.30;19.77;;;;;;;-0.74;77.46;100116.88;1680534;83;21131;-67
2022/01/27 11:57:58;;;;;;;28.87;21.17;;;;;;;-0.70;77.41;100118.29;1633005;86;20999;-67
2022/01/27 12:00:28;;;;;;;30.60;20.17;;;;;;;-0.70;77.13;100111.27;1679726;83;21073;-67
2022/01/27 12:03:08;;;;;;;27.47;19.60;;;;;;;-0.63;77.27;100112.93;1726914;81;20995;-65
2022/01/27 12:05:41;;;;;;;31.77;21.27;;;;;;;-0.59;77.04;100111.24;1720407;81;21033;-64
2022/01/27 12:08:20;;;;;;;33.40;23.37;;;;;;;-0.57;77.04;100111.61;1724719;82;21472;-66
2022/01/27 12:10:55;;;;;;;35.73;23.70;;;;;;;-0.52;76.99;100106.84;1721172;82;21588;-64
2022/01/27 12:13:39;;;;;;;29.30;21.73;;;;;;;-0.45;76.96;100111.47;1719365;82;21062;-65
2022/01/27 12:19:11;;;;;;;33.50;24.40;;;;;;;-0.33;76.52;100104.89;1730618;82;21034;-67
2022/01/27 12:22:00;;;;;;;35.47;22.60;;;;;;;-0.35;76.59;100103.70;1728084;82;20991;-65